createdAt,value
2022-10-09T00:00:46.924Z,97583.31
2022-10-09T00:03:15.687Z,97574.81
2022-10-09T00:05:42.895Z,97564.34
2022-10-09T00:08:10.865Z,97555.78
2022-10-09T00:10:41.644Z,97550.31
2022-10-09T00:13:08.787Z,97573.16
2022-10-09T00:15:40.973Z,97579.44
2022-10-09T00:18:09.130Z,97579.44
2022-10-09T00:20:37.852Z,97585.50
2022-10-09T00:23:05.776Z,97574.19
2022-10-09T00:25:33.948Z,97581.00
2022-10-09T00:28:02.303Z,97572.19
2022-10-09T00:30:29.580Z,97572.31
2022-10-09T00:32:58.580Z,97566.97
2022-10-09T00:35:25.927Z,97554.09
2022-10-09T00:37:53.707Z,97556.00
2022-10-09T00:40:21.615Z,97561.22
2022-10-09T00:42:56.484Z,97552.53
2022-10-09T00:45:24.121Z,97552.66
2022-10-09T00:47:53.681Z,97552.09
2022-10-09T00:50:31.093Z,97553.19
2022-10-09T00:53:00.981Z,97536.00
2022-10-09T00:55:29.552Z,97542.09
2022-10-09T00:57:59.398Z,97552.56
2022-10-09T01:00:26.731Z,97552.47
2022-10-09T01:02:54.026Z,97555.19
2022-10-09T01:05:30.577Z,97541.22
2022-10-09T01:08:07.849Z,97541.22
2022-10-09T01:10:42.423Z,97543.97
2022-10-09T01:13:18.134Z,97549.94
2022-10-09T01:15:52.465Z,97530.06
2022-10-09T01:18:29.616Z,97535.50
2022-10-09T01:21:07.040Z,97550.47
2022-10-09T01:23:54.150Z,97540.94
2022-10-09T01:26:35.401Z,97540.84
2022-10-09T01:29:07.672Z,97532.16
2022-10-09T01:31:40.169Z,97531.28
2022-10-09T01:34:09.076Z,97534.78
2022-10-09T01:36:37.306Z,97538.00
2022-10-09T01:39:07.367Z,97539.78
2022-10-09T01:41:35.853Z,97535.50
2022-10-09T01:44:16.403Z,97532.06
2022-10-09T01:46:44.965Z,97539.03
2022-10-09T01:49:23.377Z,97527.75
2022-10-09T01:52:02.410Z,97534.66
2022-10-09T01:54:37.943Z,97532.97
2022-10-09T01:57:08.961Z,97531.28
2022-10-09T01:59:42.803Z,97541.88
2022-10-09T02:02:11.597Z,97537.59
2022-10-09T02:04:42.407Z,97542.72
2022-10-09T02:07:10.927Z,97546.28
2022-10-09T02:09:39.961Z,97546.59
2022-10-09T02:12:11.989Z,97550.78
2022-10-09T02:14:41.462Z,97561.03
2022-10-09T02:17:16.005Z,97550.78
2022-10-09T02:19:47.132Z,97547.41
2022-10-09T02:22:18.628Z,97558.06
2022-10-09T02:24:47.208Z,97551.81
2022-10-09T02:27:15.322Z,97554.59
2022-10-09T02:29:48.983Z,97557.03
2022-10-09T02:32:17.005Z,97543.31
2022-10-09T02:34:44.627Z,97554.53
2022-10-09T02:37:12.826Z,97557.03
2022-10-09T02:39:40.369Z,97556.13
2022-10-09T02:42:07.872Z,97546.97
2022-10-09T02:44:35.365Z,97546.34
2022-10-09T02:47:04.096Z,97548.97
2022-10-09T02:49:31.479Z,97553.03
2022-10-09T02:52:00.757Z,97548.97
2022-10-09T02:54:28.333Z,97534.09
2022-10-09T02:56:56.789Z,97543.72
2022-10-09T02:59:24.149Z,97547.19
2022-10-09T03:01:51.896Z,97542.78
2022-10-09T03:04:21.299Z,97540.06
2022-10-09T03:06:49.180Z,97543.72
2022-10-09T03:09:16.955Z,97550.09
2022-10-09T03:11:44.482Z,97542.56
2022-10-09T03:14:12.506Z,97548.41
2022-10-09T03:16:40.498Z,97546.75
2022-10-09T03:19:08.319Z,97550.22
2022-10-09T03:21:38.423Z,97552.81
2022-10-09T03:24:06.258Z,97553.66
2022-10-09T03:26:34.096Z,97552.72
2022-10-09T03:29:01.939Z,97544.88
2022-10-09T03:34:16.804Z,97555.84
2022-10-09T03:36:46.396Z,97555.94
2022-10-09T03:39:13.787Z,97563.69
2022-10-09T03:41:41.310Z,97565.38
2022-10-09T03:44:08.806Z,97568.09
2022-10-09T03:46:36.380Z,97573.53
2022-10-09T03:49:04.158Z,97571.75
2022-10-09T03:51:31.387Z,97578.75
2022-10-09T03:54:00.624Z,97578.97
2022-10-09T03:56:28.025Z,97573.94
2022-10-09T03:58:55.825Z,97575.50
2022-10-09T04:01:23.688Z,97575.78
2022-10-09T04:03:51.032Z,97574.03
2022-10-09T04:06:18.214Z,97572.97
2022-10-09T04:08:46.245Z,97572.97
2022-10-09T04:11:15.172Z,97573.84
2022-10-09T04:13:42.181Z,97577.69
2022-10-09T04:16:10.270Z,97581.03
2022-10-09T04:18:37.583Z,97581.13
2022-10-09T04:21:04.727Z,97579.56
2022-10-09T04:23:32.986Z,97587.41
2022-10-09T04:26:01.433Z,97579.56
2022-10-09T04:28:31.900Z,97587.09
2022-10-09T04:31:00.742Z,97583.84
2022-10-09T04:33:29.121Z,97585.53
2022-10-09T04:35:57.279Z,97579.47
2022-10-09T04:38:25.757Z,97584.91
2022-10-09T04:40:57.766Z,97591.97
2022-10-09T04:43:25.284Z,97597.31
2022-10-09T04:45:53.930Z,97590.72
2022-10-09T04:48:21.933Z,97605.56
2022-10-09T04:50:49.760Z,97597.09
2022-10-09T04:53:17.224Z,97604.19
2022-10-09T04:55:44.801Z,97600.84
2022-10-09T04:58:14.572Z,97614.84
2022-10-09T05:00:43.253Z,97623.91
2022-10-09T05:03:13.668Z,97624.00
2022-10-09T05:05:41.293Z,97625.56
2022-10-09T05:08:08.823Z,97621.34
2022-10-09T05:10:36.656Z,97618.19
2022-10-09T05:13:04.504Z,97621.66
2022-10-09T05:15:32.497Z,97626.88
2022-10-09T05:17:59.750Z,97632.38
2022-10-09T05:20:28.334Z,97633.50
2022-10-09T05:22:55.837Z,97639.50
2022-10-09T05:25:23.106Z,97633.69
2022-10-09T05:27:50.237Z,97634.56
2022-10-09T05:30:17.469Z,97638.19
2022-10-09T05:32:44.921Z,97637.34
2022-10-09T05:35:12.271Z,97652.25
2022-10-09T05:37:44.674Z,97635.78
2022-10-09T05:40:12.509Z,97642.09
2022-10-09T05:42:39.791Z,97645.56
2022-10-09T05:45:08.348Z,97646.31
2022-10-09T05:47:36.155Z,97649.13
2022-10-09T05:50:03.648Z,97651.63
2022-10-09T05:52:30.893Z,97656.94
2022-10-09T05:55:00.567Z,97662.06
2022-10-09T05:57:27.851Z,97670.66
2022-10-09T05:59:55.179Z,97670.66
2022-10-09T06:02:22.299Z,97676.53
2022-10-09T06:04:50.077Z,97677.38
2022-10-09T06:07:17.388Z,97683.22
2022-10-09T06:09:44.816Z,97689.22
2022-10-09T06:12:14.898Z,97687.53
2022-10-09T06:14:41.867Z,97696.19
2022-10-09T06:17:09.197Z,97696.00
2022-10-09T06:19:36.489Z,97686.50
2022-10-09T06:22:03.628Z,97701.03
2022-10-09T06:24:30.910Z,97695.91
2022-10-09T06:26:58.622Z,97707.03
2022-10-09T06:29:27.665Z,97706.06
2022-10-09T06:31:55.058Z,97717.19
2022-10-09T06:34:23.683Z,97722.31
2022-10-09T06:36:50.923Z,97726.59
2022-10-09T06:39:18.575Z,97730.81
2022-10-09T06:41:46.095Z,97733.41
2022-10-09T06:44:16.824Z,97740.41
2022-10-09T06:46:49.854Z,97733.59
2022-10-09T06:49:17.592Z,97730.16
2022-10-09T06:51:45.502Z,97736.03
2022-10-09T06:54:15.529Z,97737.63
2022-10-09T06:56:43.048Z,97746.28
2022-10-09T06:59:11.257Z,97748.81
2022-10-09T07:01:39.101Z,97751.22
2022-10-09T07:04:11.434Z,97752.91
2022-10-09T07:06:42.423Z,97759.63
2022-10-09T07:09:12.497Z,97757.66
2022-10-09T07:11:42.243Z,97757.44
2022-10-09T07:14:11.375Z,97751.38
2022-10-09T07:16:41.116Z,97751.47
2022-10-09T07:19:12.223Z,97751.59
2022-10-09T07:21:41.293Z,97749.16
2022-10-09T07:24:09.447Z,97762.31
2022-10-09T07:26:38.874Z,97754.75
2022-10-09T07:29:10.584Z,97758.53
2022-10-09T07:31:38.109Z,97758.63
2022-10-09T07:34:07.477Z,97760.94
2022-10-09T07:36:36.238Z,97758.25
2022-10-09T07:39:04.770Z,97769.25
2022-10-09T07:41:32.573Z,97761.00
2022-10-09T07:44:00.084Z,97766.69
2022-10-09T07:46:33.347Z,97774.34
2022-10-09T07:49:01.656Z,97766.84
2022-10-09T07:51:30.089Z,97770.41
2022-10-09T07:54:00.233Z,97772.06
2022-10-09T07:56:30.267Z,97774.50
2022-10-09T07:58:59.380Z,97778.06
2022-10-09T08:01:28.544Z,97779.53
2022-10-09T08:03:56.914Z,97771.59
2022-10-09T08:06:25.772Z,97777.69
2022-10-09T08:08:58.007Z,97767.94
2022-10-09T08:11:28.467Z,97772.25
2022-10-09T08:13:55.756Z,97776.53
2022-10-09T08:16:25.805Z,97782.81
2022-10-09T08:18:56.936Z,97782.06
2022-10-09T08:21:27.866Z,97779.63
2022-10-09T08:23:56.371Z,97777.19
2022-10-09T08:26:25.074Z,97786.84
2022-10-09T08:28:56.015Z,97782.25
2022-10-09T08:31:24.170Z,97785.72
2022-10-09T08:33:55.548Z,97802.22
2022-10-09T08:36:23.596Z,97794.19
2022-10-09T08:38:51.646Z,97793.06
2022-10-09T08:41:29.781Z,97797.16
2022-10-09T08:44:03.393Z,97799.88
2022-10-09T08:46:49.854Z,97810.22
2022-10-09T08:49:22.169Z,97813.50
2022-10-09T08:51:53.071Z,97811.81
2022-10-09T08:54:27.372Z,97813.31
2022-10-09T08:56:55.869Z,97818.34
2022-10-09T08:59:24.549Z,97809.75
2022-10-09T09:02:02.907Z,97815.75
2022-10-09T09:04:44.207Z,97824.50
2022-10-09T09:07:19.477Z,97814.97
2022-10-09T09:09:53.467Z,97830.75
2022-10-09T09:12:29.286Z,97834.25
2022-10-09T09:15:30.394Z,97828.53
2022-10-09T09:18:12.263Z,97832.09
2022-10-09T09:20:50.664Z,97838.25
2022-10-09T09:23:18.150Z,97833.88
2022-10-09T09:25:45.778Z,97832.50
2022-10-09T09:28:18.798Z,97835.84
2022-10-09T09:30:53.987Z,97828.63
2022-10-09T09:33:36.167Z,97841.31
2022-10-09T09:36:09.444Z,97832.47
2022-10-09T09:38:54.199Z,97834.97
2022-10-09T09:41:26.568Z,97833.28
2022-10-09T09:43:54.411Z,97832.66
2022-10-09T09:46:29.440Z,97831.91
2022-10-09T09:48:57.126Z,97841.31
2022-10-09T09:51:29.310Z,97834.06
2022-10-09T09:53:59.851Z,97831.16
2022-10-09T09:57:06.751Z,97826.94
2022-10-09T09:59:35.194Z,97822.44
2022-10-09T10:02:12.406Z,97831.63
2022-10-09T10:04:50.350Z,97835.25
2022-10-09T10:07:29.300Z,97824.69
2022-10-09T10:10:05.608Z,97827.31
2022-10-09T10:12:33.871Z,97824.50
2022-10-09T10:15:01.085Z,97824.09
2022-10-09T10:17:32.982Z,97830.31
2022-10-09T10:20:06.897Z,97827.69
2022-10-09T10:22:36.007Z,97826.63
2022-10-09T10:25:04.053Z,97817.66
2022-10-09T10:27:39.036Z,97826.03
2022-10-09T10:30:11.484Z,97832.75
2022-10-09T10:32:51.675Z,97824.91
2022-10-09T10:35:24.699Z,97830.69
2022-10-09T10:38:00.119Z,97823.84
2022-10-09T10:40:32.229Z,97821.13
2022-10-09T10:43:14.093Z,97819.56
2022-10-09T10:45:55.060Z,97822.63
2022-10-09T10:48:29.629Z,97817.28
2022-10-09T10:51:05.798Z,97814.47
2022-10-09T10:53:50.959Z,97818.03
2022-10-09T10:56:31.210Z,97817.91
2022-10-09T10:59:20.523Z,97820.44
2022-10-09T11:01:56.659Z,97810.84
2022-10-09T11:04:48.818Z,97818.69
2022-10-09T11:07:26.302Z,97815.00
2022-10-09T11:10:05.603Z,97818.38
2022-10-09T11:12:48.236Z,97812.94
2022-10-09T11:15:25.643Z,97809.25
2022-10-09T11:18:04.987Z,97807.31
2022-10-09T11:21:05.147Z,97809.81
2022-10-09T11:23:48.703Z,97793.16
2022-10-09T11:26:26.831Z,97803.63
2022-10-09T11:29:01.289Z,97802.91
2022-10-09T11:31:33.703Z,97802.69
2022-10-09T11:34:06.573Z,97800.81
2022-10-09T11:36:40.317Z,97798.09
2022-10-09T11:39:14.557Z,97787.72
2022-10-09T11:41:44.208Z,97788.47
2022-10-09T11:44:33.411Z,97786.88
2022-10-09T11:47:09.863Z,97780.81
2022-10-09T11:49:48.657Z,97777.34
2022-10-09T11:52:27.379Z,97771.38
2022-10-09T11:54:55.226Z,97783.53
2022-10-09T11:57:30.116Z,97778.41
2022-10-09T12:00:09.118Z,97767.06
2022-10-09T12:02:38.031Z,97768.97
2022-10-09T12:05:18.238Z,97760.19
2022-10-09T12:07:47.394Z,97768.97
2022-10-09T12:10:29.280Z,97759.22
2022-10-09T12:13:00.912Z,97764.44
2022-10-09T12:15:36.289Z,97755.66
2022-10-09T12:18:16.748Z,97754.84
2022-10-09T12:20:48.379Z,97744.25
2022-10-09T12:23:27.398Z,97745.81
2022-10-09T12:25:56.532Z,97749.91
2022-10-09T12:28:29.711Z,97740.28
2022-10-09T12:31:00.084Z,97745.50
2022-10-09T12:33:33.945Z,97741.22
2022-10-09T12:36:06.296Z,97742.16
2022-10-09T12:38:35.681Z,97744.06
2022-10-09T12:41:07.688Z,97740.69
2022-10-09T12:43:35.898Z,97726.56
2022-10-09T12:46:04.383Z,97736.94
2022-10-09T12:48:39.502Z,97724.66
2022-10-09T12:51:16.799Z,97726.25
2022-10-09T12:53:49.955Z,97730.00
2022-10-09T12:56:23.664Z,97726.44
2022-10-09T12:58:52.674Z,97718.50
2022-10-09T13:01:21.601Z,97722.81
2022-10-09T13:03:57.721Z,97718.69
2022-10-09T13:06:28.356Z,97719.53
2022-10-09T13:09:00.400Z,97711.66
2022-10-09T13:11:34.911Z,97708.84
2022-10-09T13:14:03.018Z,97720.06
2022-10-09T13:16:40.961Z,97705.09
2022-10-09T13:19:22.733Z,97708.44
2022-10-09T13:22:07.884Z,97706.47
2022-10-09T13:24:36.976Z,97709.06
2022-10-09T13:27:05.276Z,97702.88
2022-10-09T13:29:32.734Z,97697.53
2022-10-09T13:31:59.897Z,97693.03
2022-10-09T13:34:29.204Z,97684.97
2022-10-09T13:36:56.353Z,97691.97
2022-10-09T13:39:24.456Z,97685.91
2022-10-09T13:41:54.096Z,97693.78
2022-10-09T13:44:21.655Z,97684.13
2022-10-09T13:46:49.035Z,97686.75
2022-10-09T13:49:16.382Z,97682.69
2022-10-09T13:51:45.609Z,97687.59
2022-10-09T13:54:13.735Z,97678.06
2022-10-09T13:56:41.183Z,97672.59
2022-10-09T13:59:10.582Z,97682.34
2022-10-09T14:01:38.449Z,97676.06
2022-10-09T14:04:06.253Z,97675.31
2022-10-09T14:06:35.374Z,97673.22
2022-10-09T14:09:03.207Z,97669.06
2022-10-09T14:11:30.768Z,97665.47
2022-10-09T14:13:59.170Z,97670.59
2022-10-09T14:16:29.008Z,97670.38
2022-10-09T14:18:56.788Z,97666.13
2022-10-09T14:21:24.407Z,97668.50
2022-10-09T14:23:53.928Z,97667.88
2022-10-09T14:26:21.757Z,97669.56
2022-10-09T14:28:49.547Z,97671.25
2022-10-09T14:31:17.299Z,97673.75
2022-10-09T14:33:47.374Z,97672.06
2022-10-09T14:36:17.440Z,97668.63
2022-10-09T14:38:45.671Z,97669.34
2022-10-09T14:41:13.432Z,97674.69
2022-10-09T14:43:41.633Z,97670.38
2022-10-09T14:46:11.382Z,97671.34
2022-10-09T14:48:40.199Z,97661.81
2022-10-09T14:51:12.963Z,97661.91
2022-10-09T14:53:40.626Z,97664.53
2022-10-09T14:56:11.674Z,97661.09
2022-10-09T14:58:40.402Z,97662.13
2022-10-09T15:01:08.704Z,97659.50
2022-10-09T15:03:36.963Z,97663.16
2022-10-09T15:06:07.022Z,97663.06
2022-10-09T15:08:38.142Z,97664.84
2022-10-09T15:11:05.709Z,97659.72
2022-10-09T15:13:34.546Z,97661.50
2022-10-09T15:16:03.842Z,97657.94
2022-10-09T15:18:31.160Z,97662.44
2022-10-09T15:20:59.035Z,97658.34
2022-10-09T15:23:27.200Z,97656.69
2022-10-09T15:25:58.910Z,97654.09
2022-10-09T15:28:26.806Z,97657.84
2022-10-09T15:30:56.959Z,97657.00
2022-10-09T15:33:24.977Z,97651.13
2022-10-09T15:35:54.116Z,97642.66
2022-10-09T15:38:23.557Z,97652.31
2022-10-09T15:40:52.567Z,97647.28
2022-10-09T15:43:25.049Z,97650.00
2022-10-09T15:45:53.780Z,97648.22
2022-10-09T15:48:23.223Z,97643.91
2022-10-09T15:50:52.047Z,97654.50
2022-10-09T15:53:21.484Z,97643.28
2022-10-09T15:55:52.242Z,97643.41
2022-10-09T15:58:22.281Z,97648.84
2022-10-09T16:00:52.443Z,97640.59
2022-10-09T16:03:19.703Z,97643.31
2022-10-09T16:05:49.301Z,97644.22
2022-10-09T16:08:19.425Z,97641.81
2022-10-09T16:10:49.571Z,97641.22
2022-10-09T16:13:17.392Z,97632.81
2022-10-09T16:15:48.628Z,97642.03
2022-10-09T16:18:17.185Z,97638.91
2022-10-09T16:20:45.180Z,97646.84
2022-10-09T16:23:14.166Z,97638.25
2022-10-09T16:25:42.261Z,97648.09
2022-10-09T16:28:12.136Z,97648.28
2022-10-09T16:30:40.548Z,97645.97
2022-10-09T16:33:13.015Z,97653.19
2022-10-09T16:35:40.711Z,97647.38
2022-10-09T16:38:08.512Z,97650.22
2022-10-09T16:43:23.281Z,97645.69
2022-10-09T16:45:50.639Z,97651.97
2022-10-09T16:48:19.672Z,97652.38
2022-10-09T16:50:47.879Z,97642.13
2022-10-09T16:53:16.371Z,97650.25
2022-10-09T16:55:43.862Z,97653.16
2022-10-09T16:58:11.376Z,97653.38
2022-10-09T17:00:38.934Z,97652.25
2022-10-09T17:03:06.681Z,97655.94
2022-10-09T17:05:41.307Z,97658.66
2022-10-09T17:08:09.577Z,97649.41
2022-10-09T17:10:42.153Z,97663.31
2022-10-09T17:13:09.674Z,97657.63
2022-10-09T17:15:40.715Z,97649.16
2022-10-09T17:18:10.208Z,97657.19
2022-10-09T17:20:41.148Z,97650.75
2022-10-09T17:23:08.708Z,97650.41
2022-10-09T17:25:39.277Z,97648.09
2022-10-09T17:28:09.625Z,97654.34
2022-10-09T17:30:42.132Z,97647.44
2022-10-09T17:33:09.948Z,97647.53
2022-10-09T17:35:42.557Z,97646.16
2022-10-09T17:38:12.336Z,97654.06
2022-10-09T17:40:40.644Z,97652.56
2022-10-09T17:43:09.116Z,97656.97
2022-10-09T17:45:41.117Z,97654.63
2022-10-09T17:48:10.222Z,97654.06
2022-10-09T17:50:38.741Z,97649.88
2022-10-09T17:53:08.472Z,97656.22
2022-10-09T17:55:38.260Z,97644.41
2022-10-09T17:58:06.572Z,97642.97
2022-10-09T18:00:38.358Z,97638.19
2022-10-09T18:03:06.733Z,97647.22
2022-10-09T18:05:41.319Z,97642.47
2022-10-09T18:08:12.070Z,97646.38
2022-10-09T18:10:41.306Z,97643.19
2022-10-09T18:13:11.353Z,97642.44
2022-10-09T18:15:40.200Z,97645.44
2022-10-09T18:18:09.646Z,97652.59
2022-10-09T18:20:37.540Z,97647.84
2022-10-09T18:23:07.233Z,97652.28
2022-10-09T18:25:41.946Z,97643.88
2022-10-09T18:28:10.032Z,97654.69
2022-10-09T18:30:42.417Z,97655.88
2022-10-09T18:33:10.719Z,97655.38
2022-10-09T18:35:39.741Z,97664.41
2022-10-09T18:38:09.852Z,97658.59
2022-10-09T18:40:45.393Z,97654.50
2022-10-09T18:43:15.749Z,97657.38
2022-10-09T18:45:48.639Z,97664.59
2022-10-09T18:48:17.489Z,97662.16
2022-10-09T18:50:46.751Z,97651.91
2022-10-09T18:53:18.291Z,97659.72
2022-10-09T18:55:49.131Z,97657.44
2022-10-09T18:58:18.229Z,97654.09
2022-10-09T19:00:46.739Z,97653.59
2022-10-09T19:03:14.921Z,97648.66
2022-10-09T19:05:43.708Z,97649.75
2022-10-09T19:08:13.763Z,97641.34
2022-10-09T19:10:41.441Z,97658.06
2022-10-09T19:13:10.976Z,97642.75
2022-10-09T19:15:38.265Z,97663.84
2022-10-09T19:18:07.167Z,97673.34
2022-10-09T19:20:39.386Z,97665.00
2022-10-09T19:23:07.046Z,97662.66
2022-10-09T19:25:34.569Z,97654.91
2022-10-09T19:28:02.407Z,97668.34
2022-10-09T19:30:31.529Z,97665.91
2022-10-09T19:32:58.814Z,97665.38
2022-10-09T19:35:26.175Z,97660.41
2022-10-09T19:37:53.462Z,97665.84
2022-10-09T19:40:20.974Z,97666.94
2022-10-09T19:42:49.051Z,97678.03
2022-10-09T19:45:16.678Z,97680.88
2022-10-09T19:47:45.782Z,97684.38
2022-10-09T19:50:13.930Z,97675.97
2022-10-09T19:52:41.814Z,97671.78
2022-10-09T19:55:09.721Z,97676.13
2022-10-09T19:57:37.528Z,97674.53
2022-10-09T20:00:05.633Z,97674.44
2022-10-09T20:02:33.952Z,97678.00
2022-10-09T20:05:04.597Z,97671.25
2022-10-09T20:07:32.683Z,97671.56
2022-10-09T20:09:59.969Z,97671.81
2022-10-09T20:12:27.369Z,97670.28
2022-10-09T20:14:54.633Z,97669.50
2022-10-09T20:17:22.123Z,97673.97
2022-10-09T20:19:49.409Z,97667.22
2022-10-09T20:22:18.787Z,97663.13
2022-10-09T20:24:45.854Z,97662.56
2022-10-09T20:27:13.180Z,97666.19
2022-10-09T20:29:40.679Z,97663.81
2022-10-09T20:32:08.011Z,97669.59
2022-10-09T20:34:35.356Z,97669.69
2022-10-09T20:37:02.886Z,97678.25
2022-10-09T20:39:31.657Z,97659.50
2022-10-09T20:41:58.959Z,97663.97
2022-10-09T20:44:27.345Z,97655.59
2022-10-09T20:46:55.128Z,97662.81
2022-10-09T20:49:23.390Z,97659.53
2022-10-09T20:51:50.921Z,97662.94
2022-10-09T20:54:20.064Z,97655.22
2022-10-09T20:56:49.915Z,97662.34
2022-10-09T20:59:17.926Z,97669.34
2022-10-09T21:01:45.769Z,97656.59
2022-10-09T21:04:13.750Z,97660.03
2022-10-09T21:06:42.719Z,97659.25
2022-10-09T21:09:10.558Z,97661.03
2022-10-09T21:11:38.267Z,97663.56
2022-10-09T21:14:07.507Z,97654.06
2022-10-09T21:16:35.050Z,97663.78
2022-10-09T21:19:04.748Z,97661.09
2022-10-09T21:21:33.643Z,97665.63
2022-10-09T21:24:03.020Z,97654.75
2022-10-09T21:26:34.745Z,97659.25
2022-10-09T21:29:03.656Z,97665.38
2022-10-09T21:31:34.260Z,97658.41
2022-10-09T21:34:02.414Z,97649.94
2022-10-09T21:36:55.816Z,97666.13
2022-10-09T21:39:29.474Z,97657.38
2022-10-09T21:41:56.991Z,97651.22
2022-10-09T21:44:24.469Z,97657.38
2022-10-09T21:46:53.330Z,97643.44
2022-10-09T21:49:23.075Z,97654.75
2022-10-09T21:51:50.876Z,97654.28
2022-10-09T21:54:18.711Z,97652.97
2022-10-09T21:56:46.584Z,97642.22
2022-10-09T21:59:14.450Z,97652.97
2022-10-09T22:01:42.254Z,97646.97
2022-10-09T22:04:11.980Z,97652.00
2022-10-09T22:06:39.177Z,97646.66
2022-10-09T22:09:06.710Z,97657.13
2022-10-09T22:11:34.225Z,97651.94
2022-10-09T22:14:01.764Z,97644.91
2022-10-09T22:16:29.014Z,97651.31
2022-10-09T22:18:56.958Z,97649.63
2022-10-09T22:21:26.234Z,97653.19
2022-10-09T22:23:54.077Z,97657.69
2022-10-09T22:26:23.213Z,97655.16
2022-10-09T22:28:50.726Z,97663.22
2022-10-09T22:31:21.775Z,97648.69
2022-10-09T22:33:51.832Z,97654.72
2022-10-09T22:36:21.321Z,97662.53
2022-10-09T22:38:53.909Z,97657.31
2022-10-09T22:41:23.031Z,97654.00
2022-10-09T22:43:53.112Z,97655.00
2022-10-09T22:46:22.900Z,97647.22
2022-10-09T22:48:51.378Z,97648.88
2022-10-09T22:51:20.190Z,97651.34
2022-10-09T22:53:49.726Z,97635.91
2022-10-09T22:56:19.404Z,97653.31
2022-10-09T22:58:47.950Z,97641.50
2022-10-09T23:01:19.262Z,97645.88
2022-10-09T23:03:47.442Z,97637.41
2022-10-09T23:06:16.635Z,97647.72
2022-10-09T23:08:46.893Z,97637.28
2022-10-09T23:11:17.912Z,97643.38
2022-10-09T23:13:46.409Z,97640.63
2022-10-09T23:16:16.327Z,97646.69
2022-10-09T23:18:43.774Z,97644.84
2022-10-09T23:21:14.132Z,97652.28
2022-10-09T23:23:42.566Z,97641.75
2022-10-09T23:26:12.620Z,97647.72
2022-10-09T23:28:43.167Z,97651.00
2022-10-09T23:31:12.835Z,97647.63
2022-10-09T23:33:41.663Z,97644.97
2022-10-09T23:36:10.746Z,97644.78
2022-10-09T23:38:38.901Z,97655.28
2022-10-09T23:41:08.979Z,97646.59
2022-10-09T23:43:38.740Z,97646.41
2022-10-09T23:46:12.436Z,97649.91
2022-10-09T23:48:39.954Z,97650.81
2022-10-09T23:51:07.671Z,97651.75
2022-10-09T23:53:36.175Z,97645.69
2022-10-09T23:56:07.241Z,97645.63
2022-10-09T23:58:35.023Z,97645.41
